Morgan Reinauer — WCA3764 — position and weather

sailwx.info

Track history (hours):
 
Tides and Currents Weather Stations Pressure Air Temp Water Temp Dewpoint Dewpoint Depression Visibility Wind Speed Wind Dir Waves Ship Positions

Morgan Reinauer

Owner: REINAUER, HAROLD A, STATEN ISLAND, NY. More information available from US FCC via Universal Licensing System and Coast Guard Vessel Documentation Center.

Last reported at 2017-Dec-11 09:57 UTC. Time now 2017-Dec-13 14:38 UTC.
Position N 40°32' W 074°15'.

Length 158 m; draft 6 m.

Type: . MMSI: 366516380.

Date/timePositionNaut miles runAvg speedWind from/ knotsBaromVisibWave heightAir tempDewpointWater temp
2017-Dec-11 09:57N 40°32' W 074°15'0 0.0
2017-Dec-11 09:24N 40°32' W 074°15'0 0.0
2017-Dec-11 07:04N 40°32' W 074°15'0 0.2
2017-Dec-11 07:00N 40°32' W 074°15'3 0.4
2017-Dec-10 22:39N 40°30' W 074°11'2 9.3
2017-Dec-10 22:29N 40°30' W 074°09'4 9.2
2017-Dec-10 22:00N 40°29' W 074°04'4 8.4
2017-Dec-10 21:31N 40°33' W 074°02'510.5
2017-Dec-10 21:01N 40°38' W 074°03'2 3.4
2017-Dec-10 20:31N 40°40' W 074°02'0 0.0
2017-Dec-10 20:00N 40°40' W 074°02'0 0.0
2017-Dec-10 19:30N 40°40' W 074°02'0 0.0
2017-Dec-10 19:00N 40°40' W 074°02'0 0.0
2017-Dec-10 18:30N 40°40' W 074°02'0 0.0
2017-Dec-10 18:00N 40°40' W 074°02'0 0.0
2017-Dec-10 17:30N 40°40' W 074°02'0 0.0
2017-Dec-10 17:00N 40°40' W 074°02'0 0.0
2017-Dec-10 16:30N 40°40' W 074°02'0 0.0
2017-Dec-10 16:00N 40°40' W 074°02'0 0.1
2017-Dec-10 15:30N 40°40' W 074°02'0 0.1
2017-Dec-10 15:00N 40°39' W 074°02'0 0.0
2017-Dec-10 14:30N 40°39' W 074°02'0 0.0
2017-Dec-10 14:00N 40°39' W 074°02'0 0.1
2017-Dec-10 13:30N 40°40' W 074°02'0 0.1
2017-Dec-10 13:00N 40°39' W 074°02'0 0.0
2017-Dec-10 12:30N 40°39' W 074°02'0 0.1
2017-Dec-10 12:00N 40°39' W 074°02'0 0.0
2017-Dec-10 11:30N 40°39' W 074°02'0 0.0
2017-Dec-10 11:00N 40°39' W 074°02'0 0.7
2017-Dec-10 10:30N 40°39' W 074°03'0 0.0
2017-Dec-10 10:00N 40°39' W 074°03'1 2.1
2017-Dec-10 09:30N 40°40' W 074°01'5 9.2
2017-Dec-10 09:00N 40°44' W 073°58'510.1
2017-Dec-10 08:30N 40°48' W 073°54'4 7.1
2017-Dec-10 08:00N 40°48' W 073°50'4 7.7
2017-Dec-10 07:30N 40°51' W 073°46'510.2
2017-Dec-10 06:58N 40°54' W 073°41'4 0.1
2017-Dec-09 03:10N 40°56' W 073°36'4 9.6
2017-Dec-09 02:44N 40°54' W 073°41'2 9.6
2017-Dec-09 02:30N 40°53' W 073°43'6 9.4
2017-Dec-09 01:53N 40°48' W 073°47'4 9.4
2017-Dec-09 01:30N 40°48' W 073°52'3 6.8
2017-Dec-09 01:00N 40°47' W 073°56'3 6.7
2017-Dec-09 00:30N 40°44' W 073°58'3 6.1
2017-Dec-09 00:00N 40°41' W 074°01'3 5.3
2017-Dec-08 23:30N 40°39' W 074°03'0 0.3
2017-Dec-08 23:00N 40°39' W 074°03'0 0.2
2017-Dec-08 22:30N 40°39' W 074°03'1 2.1
2017-Dec-08 22:00N 40°39' W 074°04'3 6.3
2017-Dec-08 21:30N 40°39' W 074°08'3 5.0
2017-Dec-08 21:00N 40°38' W 074°12'3 6.2
2017-Dec-08 20:29N 40°35' W 074°12'3 5.4
2017-Dec-08 20:00N 40°33' W 074°15'1 0.6
2017-Dec-08 18:40N 40°32' W 074°15'0 0.0
2017-Dec-08 18:16N 40°32' W 074°15'0 0.0
2017-Dec-08 17:52N 40°32' W 074°15'0 0.0
2017-Dec-08 16:46N 40°32' W 074°15'0 0.0
2017-Dec-08 15:34N 40°32' W 074°15'0 0.0
2017-Dec-08 15:28N 40°32' W 074°15'0 0.0
2017-Dec-08 14:46N 40°32' W 074°15'0 0.0
2017-Dec-08 14:16N 40°32' W 074°15'0 0.0
2017-Dec-08 13:52N 40°32' W 074°15'0 0.0
2017-Dec-08 13:28N 40°32' W 074°15'0 0.0
2017-Dec-08 12:52N 40°32' W 074°15'0 0.0
2017-Dec-08 12:10N 40°32' W 074°15'0 0.0
2017-Dec-08 11:34N 40°32' W 074°15'0 0.0
2017-Dec-08 11:28N 40°32' W 074°15'0 0.0
2017-Dec-08 11:00N 40°32' W 074°15'0 0.5
2017-Dec-08 10:29N 40°32' W 074°15'0 0.8
2017-Dec-08 09:59N 40°32' W 074°15'0 0.6
2017-Dec-08 09:30N 40°32' W 074°15'0 0.0
2017-Dec-08 02:00N 40°31' W 074°15'2 3.9
2017-Dec-08 01:30N 40°33' W 074°14'0 0.0
2017-Dec-08 00:56N 40°33' W 074°14'0 0.1
2017-Dec-08 00:29N 40°33' W 074°14'0 0.2
2017-Dec-07 23:53N 40°34' W 074°14'0 0.0
2017-Dec-07 23:02N 40°34' W 074°14'0 0.0
2017-Dec-07 22:53N 40°34' W 074°14'0 0.0
2017-Dec-07 22:29N 40°34' W 074°14'0 0.0
2017-Dec-07 21:56N 40°34' W 074°14'0 0.0
2017-Dec-07 21:29N 40°34' W 074°14'0 0.0
2017-Dec-07 20:44N 40°34' W 074°14'0 0.0
2017-Dec-07 20:29N 40°34' W 074°14'0 0.0
2017-Dec-07 19:50N 40°34' W 074°14'0 0.0
2017-Dec-07 18:38N 40°34' W 074°14'0 0.0
2017-Dec-07 18:26N 40°34' W 074°14'0 0.0
2017-Dec-07 17:56N 40°34' W 074°14'0 0.0
2017-Dec-07 17:26N 40°34' W 074°14'0 0.2
2017-Dec-07 16:43N 40°33' W 074°15'0 0.0
2017-Dec-07 16:25N 40°33' W 074°15'0 0.0
2017-Dec-07 15:55N 40°33' W 074°15'0 0.0
2017-Dec-07 15:07N 40°33' W 074°15'0 0.0
2017-Dec-07 14:55N 40°33' W 074°15'0 0.0
2017-Dec-07 14:22N 40°33' W 074°15'0 0.0
2017-Dec-07 13:43N 40°33' W 074°15'0 0.0
2017-Dec-07 13:22N 40°33' W 074°15'0 0.0
2017-Dec-07 12:22N 40°33' W 074°15'0 0.0
2017-Dec-07 11:52N 40°33' W 074°15'0 0.0
2017-Dec-07 11:25N 40°33' W 074°15'0 0.0
2017-Dec-07 10:31N 40°33' W 074°15'0 0.0
2017-Dec-07 10:13N 40°33' W 074°15'0 0.0
2017-Dec-07 09:55N 40°33' W 074°15'0 0.0
2017-Dec-07 09:29N 40°33' W 074°15'3 6.2
2017-Dec-07 09:00N 40°36' W 074°12'4 8.0
2017-Dec-07 08:30N 40°39' W 074°08'1 1.0
2017-Dec-07 07:57N 40°38' W 074°08'0 0.0
2017-Dec-07 07:27N 40°38' W 074°08'0 0.0
2017-Dec-07 06:57N 40°38' W 074°08'0 0.0
2017-Dec-07 06:30N 40°38' W 074°08'0 0.0
2017-Dec-07 06:01N 40°38' W 074°08'3 6.1
2017-Dec-07 05:30N 40°38' W 074°12'5 9.2
2017-Dec-07 04:59N 40°34' W 074°13'1 1.8
2017-Dec-07 04:21N 40°33' W 074°15'0 0.0
2017-Dec-07 04:00N 40°33' W 074°15'0 0.0
2017-Dec-07 03:30N 40°33' W 074°15'0 0.0
2017-Dec-07 03:00N 40°33' W 074°15'0 0.0
2017-Dec-07 02:24N 40°33' W 074°15'0 0.0
2017-Dec-07 02:00N 40°33' W 074°15'0 0.0
2017-Dec-07 01:30N 40°33' W 074°15'0 0.0
2017-Dec-07 00:18N 40°33' W 074°15'0 0.0
2017-Dec-06 23:42N 40°33' W 074°14'0 0.0
2017-Dec-06 23:30N 40°33' W 074°14'0 0.0
2017-Dec-06 23:00N 40°33' W 074°14'0 0.0
2017-Dec-06 22:23N 40°33' W 074°14'0 0.0
2017-Dec-06 22:00N 40°33' W 074°14'0 0.0
2017-Dec-06 21:07N 40°33' W 074°14'0 0.5
2017-Dec-06 20:58N 40°33' W 074°14'  
2017-Dec-04 05:49N 41°48' W 071°24'0 0.4
2017-Dec-04 05:30N 41°48' W 071°24'2 3.2
2017-Dec-04 05:00N 41°47' W 071°22'4 7.6
2017-Dec-04 04:30N 41°43' W 071°21'4 7.8
2017-Dec-04 03:58N 41°39' W 071°19'10 7.6
2017-Dec-04 02:42N 41°30' W 071°21'129 8.1
2017-Dec-03 10:50N 40°28' W 073°51'4 8.4
2017-Dec-03 10:21N 40°27' W 073°56'3 7.3
2017-Dec-03 10:00N 40°29' W 073°58'13 6.7
2017-Dec-03 08:04N 40°31' W 074°15'0 5.9
2017-Dec-03 07:59N 40°31' W 074°15'1 2.3
2017-Dec-03 07:30N 40°32' W 074°15'0 0.0
2017-Dec-03 06:57N 40°32' W 074°15'0 0.0
2017-Dec-03 06:06N 40°32' W 074°15'0 0.0
2017-Dec-03 06:00N 40°32' W 074°15'0 0.0
2017-Dec-03 03:54N 40°32' W 074°15'0 0.0
2017-Dec-02 16:45N 40°32' W 074°15'0 0.0
2017-Dec-02 16:27N 40°32' W 074°15'0 0.0
2017-Dec-02 13:39N 40°32' W 074°15'0 0.0
2017-Dec-02 13:21N 40°32' W 074°15'0 0.0
2017-Dec-02 13:00N 40°32' W 074°15'0 0.0
2017-Dec-02 12:21N 40°32' W 074°15'0 0.0
2017-Dec-02 12:00N 40°32' W 074°15'0 0.0
2017-Dec-02 04:45N 40°32' W 074°15'1 2.0
2017-Dec-02 04:29N 40°33' W 074°15'3 6.4
2017-Dec-02 04:00N 40°35' W 074°12'4 7.3
2017-Dec-02 03:30N 40°39' W 074°11'4 8.4
2017-Dec-02 03:01N 40°39' W 074°05'2 3.7
2017-Dec-02 02:28N 40°39' W 074°03'0 0.1
2017-Dec-02 01:58N 40°39' W 074°03'0 0.1
2017-Dec-02 01:28N 40°40' W 074°03'0 0.1
2017-Dec-02 00:58N 40°40' W 074°03'0 0.1
2017-Dec-02 00:28N 40°40' W 074°03'0 0.0
2017-Dec-01 23:58N 40°40' W 074°03'0 0.1
2017-Dec-01 23:28N 40°40' W 074°03'0 0.1
2017-Dec-01 22:58N 40°40' W 074°03'0 0.1
2017-Dec-01 22:28N 40°40' W 074°03'0 0.1
2017-Dec-01 21:58N 40°40' W 074°03'0 0.1
2017-Dec-01 21:28N 40°40' W 074°03'0 0.0
2017-Dec-01 20:58N 40°40' W 074°03'0 0.1
2017-Dec-01 20:28N 40°40' W 074°03'0 0.0
2017-Dec-01 19:58N 40°40' W 074°03'0 0.0
2017-Dec-01 19:28N 40°40' W 074°03'0 0.0
2017-Dec-01 18:58N 40°40' W 074°03'0 0.0
2017-Dec-01 18:28N 40°40' W 074°03'0 0.1
2017-Dec-01 17:58N 40°39' W 074°03'0 0.0
2017-Dec-01 17:28N 40°39' W 074°03'0 0.0
2017-Dec-01 16:58N 40°39' W 074°03'0 0.0
2017-Dec-01 16:28N 40°39' W 074°03'0 0.0
2017-Dec-01 15:58N 40°39' W 074°03'0 0.0
2017-Dec-01 15:28N 40°39' W 074°03'0 0.0
2017-Dec-01 14:58N 40°39' W 074°03'0 0.0
2017-Dec-01 14:28N 40°39' W 074°03'0 0.1
2017-Dec-01 13:58N 40°40' W 074°03'0 0.0
2017-Dec-01 13:30N 40°40' W 074°03'0 0.1
2017-Dec-01 13:00N 40°40' W 074°03'0 0.2
2017-Dec-01 12:30N 40°40' W 074°03'0 0.1
2017-Dec-01 12:00N 40°40' W 074°03'0 0.0
2017-Dec-01 11:30N 40°40' W 074°03'0 0.1
2017-Dec-01 11:00N 40°40' W 074°03'0 0.1
2017-Dec-01 10:30N 40°40' W 074°03'0 0.0
2017-Dec-01 10:00N 40°40' W 074°03'  
Track history (hours):
 
Tides and Currents Weather Stations Pressure Air Temp Water Temp Dewpoint Dewpoint Depression Visibility Wind Speed Wind Dir Waves Ship Positions

Morgan Reinauer

Owner: REINAUER, HAROLD A, STATEN ISLAND, NY. More information available from US FCC via Universal Licensing System and Coast Guard Vessel Documentation Center.

Last reported at 2017-Dec-11 09:57 UTC. Time now 2017-Dec-13 14:38 UTC.
Position N 40°32' W 074°15'.

Length 158 m; draft 6 m.

Type: . MMSI: 366516380.

Date/timePositionNaut miles runAvg speedWind from/ knotsBaromVisibWave heightAir tempDewpointWater temp
2017-Dec-11 09:57N 40°32' W 074°15'0 0.0
2017-Dec-11 09:24N 40°32' W 074°15'0 0.0
2017-Dec-11 07:04N 40°32' W 074°15'0 0.2
2017-Dec-11 07:00N 40°32' W 074°15'3 0.4
2017-Dec-10 22:39N 40°30' W 074°11'2 9.3
2017-Dec-10 22:29N 40°30' W 074°09'4 9.2
2017-Dec-10 22:00N 40°29' W 074°04'4 8.4
2017-Dec-10 21:31N 40°33' W 074°02'510.5
2017-Dec-10 21:01N 40°38' W 074°03'2 3.4
2017-Dec-10 20:31N 40°40' W 074°02'0 0.0
2017-Dec-10 20:00N 40°40' W 074°02'0 0.0
2017-Dec-10 19:30N 40°40' W 074°02'0 0.0
2017-Dec-10 19:00N 40°40' W 074°02'0 0.0
2017-Dec-10 18:30N 40°40' W 074°02'0 0.0
2017-Dec-10 18:00N 40°40' W 074°02'0 0.0
2017-Dec-10 17:30N 40°40' W 074°02'0 0.0
2017-Dec-10 17:00N 40°40' W 074°02'0 0.0
2017-Dec-10 16:30N 40°40' W 074°02'0 0.0
2017-Dec-10 16:00N 40°40' W 074°02'0 0.1
2017-Dec-10 15:30N 40°40' W 074°02'0 0.1
2017-Dec-10 15:00N 40°39' W 074°02'0 0.0
2017-Dec-10 14:30N 40°39' W 074°02'0 0.0
2017-Dec-10 14:00N 40°39' W 074°02'0 0.1
2017-Dec-10 13:30N 40°40' W 074°02'0 0.1
2017-Dec-10 13:00N 40°39' W 074°02'0 0.0
2017-Dec-10 12:30N 40°39' W 074°02'0 0.1
2017-Dec-10 12:00N 40°39' W 074°02'0 0.0
2017-Dec-10 11:30N 40°39' W 074°02'0 0.0
2017-Dec-10 11:00N 40°39' W 074°02'0 0.7
2017-Dec-10 10:30N 40°39' W 074°03'0 0.0
2017-Dec-10 10:00N 40°39' W 074°03'1 2.1
2017-Dec-10 09:30N 40°40' W 074°01'5 9.2
2017-Dec-10 09:00N 40°44' W 073°58'510.1
2017-Dec-10 08:30N 40°48' W 073°54'4 7.1
2017-Dec-10 08:00N 40°48' W 073°50'4 7.7
2017-Dec-10 07:30N 40°51' W 073°46'510.2
2017-Dec-10 06:58N 40°54' W 073°41'4 0.1
2017-Dec-09 03:10N 40°56' W 073°36'4 9.6
2017-Dec-09 02:44N 40°54' W 073°41'2 9.6
2017-Dec-09 02:30N 40°53' W 073°43'6 9.4
2017-Dec-09 01:53N 40°48' W 073°47'4 9.4
2017-Dec-09 01:30N 40°48' W 073°52'3 6.8
2017-Dec-09 01:00N 40°47' W 073°56'3 6.7
2017-Dec-09 00:30N 40°44' W 073°58'3 6.1
2017-Dec-09 00:00N 40°41' W 074°01'3 5.3
2017-Dec-08 23:30N 40°39' W 074°03'0 0.3
2017-Dec-08 23:00N 40°39' W 074°03'0 0.2
2017-Dec-08 22:30N 40°39' W 074°03'1 2.1
2017-Dec-08 22:00N 40°39' W 074°04'3 6.3
2017-Dec-08 21:30N 40°39' W 074°08'3 5.0
2017-Dec-08 21:00N 40°38' W 074°12'3 6.2
2017-Dec-08 20:29N 40°35' W 074°12'3 5.4
2017-Dec-08 20:00N 40°33' W 074°15'1 0.6
2017-Dec-08 18:40N 40°32' W 074°15'0 0.0
2017-Dec-08 18:16N 40°32' W 074°15'0 0.0
2017-Dec-08 17:52N 40°32' W 074°15'0 0.0
2017-Dec-08 16:46N 40°32' W 074°15'0 0.0
2017-Dec-08 15:34N 40°32' W 074°15'0 0.0
2017-Dec-08 15:28N 40°32' W 074°15'0 0.0
2017-Dec-08 14:46N 40°32' W 074°15'0 0.0
2017-Dec-08 14:16N 40°32' W 074°15'0 0.0
2017-Dec-08 13:52N 40°32' W 074°15'0 0.0
2017-Dec-08 13:28N 40°32' W 074°15'0 0.0
2017-Dec-08 12:52N 40°32' W 074°15'0 0.0
2017-Dec-08 12:10N 40°32' W 074°15'0 0.0
2017-Dec-08 11:34N 40°32' W 074°15'0 0.0
2017-Dec-08 11:28N 40°32' W 074°15'0 0.0
2017-Dec-08 11:00N 40°32' W 074°15'0 0.5
2017-Dec-08 10:29N 40°32' W 074°15'0 0.8
2017-Dec-08 09:59N 40°32' W 074°15'0 0.6
2017-Dec-08 09:30N 40°32' W 074°15'0 0.0
2017-Dec-08 02:00N 40°31' W 074°15'2 3.9
2017-Dec-08 01:30N 40°33' W 074°14'0 0.0
2017-Dec-08 00:56N 40°33' W 074°14'0 0.1
2017-Dec-08 00:29N 40°33' W 074°14'0 0.2
2017-Dec-07 23:53N 40°34' W 074°14'0 0.0
2017-Dec-07 23:02N 40°34' W 074°14'0 0.0
2017-Dec-07 22:53N 40°34' W 074°14'0 0.0
2017-Dec-07 22:29N 40°34' W 074°14'0 0.0
2017-Dec-07 21:56N 40°34' W 074°14'0 0.0
2017-Dec-07 21:29N 40°34' W 074°14'0 0.0
2017-Dec-07 20:44N 40°34' W 074°14'0 0.0
2017-Dec-07 20:29N 40°34' W 074°14'0 0.0
2017-Dec-07 19:50N 40°34' W 074°14'0 0.0
2017-Dec-07 18:38N 40°34' W 074°14'0 0.0
2017-Dec-07 18:26N 40°34' W 074°14'0 0.0
2017-Dec-07 17:56N 40°34' W 074°14'0 0.0
2017-Dec-07 17:26N 40°34' W 074°14'0 0.2
2017-Dec-07 16:43N 40°33' W 074°15'0 0.0
2017-Dec-07 16:25N 40°33' W 074°15'0 0.0
2017-Dec-07 15:55N 40°33' W 074°15'0 0.0
2017-Dec-07 15:07N 40°33' W 074°15'0 0.0
2017-Dec-07 14:55N 40°33' W 074°15'0 0.0
2017-Dec-07 14:22N 40°33' W 074°15'0 0.0
2017-Dec-07 13:43N 40°33' W 074°15'0 0.0
2017-Dec-07 13:22N 40°33' W 074°15'0 0.0
2017-Dec-07 12:22N 40°33' W 074°15'0 0.0
2017-Dec-07 11:52N 40°33' W 074°15'0 0.0
2017-Dec-07 11:25N 40°33' W 074°15'0 0.0
2017-Dec-07 10:31N 40°33' W 074°15'0 0.0
2017-Dec-07 10:13N 40°33' W 074°15'0 0.0
2017-Dec-07 09:55N 40°33' W 074°15'0 0.0
2017-Dec-07 09:29N 40°33' W 074°15'3 6.2
2017-Dec-07 09:00N 40°36' W 074°12'4 8.0
2017-Dec-07 08:30N 40°39' W 074°08'1 1.0
2017-Dec-07 07:57N 40°38' W 074°08'0 0.0
2017-Dec-07 07:27N 40°38' W 074°08'0 0.0
2017-Dec-07 06:57N 40°38' W 074°08'0 0.0
2017-Dec-07 06:30N 40°38' W 074°08'0 0.0
2017-Dec-07 06:01N 40°38' W 074°08'3 6.1
2017-Dec-07 05:30N 40°38' W 074°12'5 9.2
2017-Dec-07 04:59N 40°34' W 074°13'1 1.8
2017-Dec-07 04:21N 40°33' W 074°15'0 0.0
2017-Dec-07 04:00N 40°33' W 074°15'0 0.0
2017-Dec-07 03:30N 40°33' W 074°15'0 0.0
2017-Dec-07 03:00N 40°33' W 074°15'0 0.0
2017-Dec-07 02:24N 40°33' W 074°15'0 0.0
2017-Dec-07 02:00N 40°33' W 074°15'0 0.0
2017-Dec-07 01:30N 40°33' W 074°15'0 0.0
2017-Dec-07 00:18N 40°33' W 074°15'0 0.0
2017-Dec-06 23:42N 40°33' W 074°14'0 0.0
2017-Dec-06 23:30N 40°33' W 074°14'0 0.0
2017-Dec-06 23:00N 40°33' W 074°14'0 0.0
2017-Dec-06 22:23N 40°33' W 074°14'0 0.0
2017-Dec-06 22:00N 40°33' W 074°14'0 0.0
2017-Dec-06 21:07N 40°33' W 074°14'0 0.5
2017-Dec-06 20:58N 40°33' W 074°14'  
2017-Dec-04 05:49N 41°48' W 071°24'0 0.4
2017-Dec-04 05:30N 41°48' W 071°24'2 3.2
2017-Dec-04 05:00N 41°47' W 071°22'4 7.6
2017-Dec-04 04:30N 41°43' W 071°21'4 7.8
2017-Dec-04 03:58N 41°39' W 071°19'10 7.6
2017-Dec-04 02:42N 41°30' W 071°21'129 8.1
2017-Dec-03 10:50N 40°28' W 073°51'4 8.4
2017-Dec-03 10:21N 40°27' W 073°56'3 7.3
2017-Dec-03 10:00N 40°29' W 073°58'13 6.7
2017-Dec-03 08:04N 40°31' W 074°15'0 5.9
2017-Dec-03 07:59N 40°31' W 074°15'1 2.3
2017-Dec-03 07:30N 40°32' W 074°15'0 0.0
2017-Dec-03 06:57N 40°32' W 074°15'0 0.0
2017-Dec-03 06:06N 40°32' W 074°15'0 0.0
2017-Dec-03 06:00N 40°32' W 074°15'0 0.0
2017-Dec-03 03:54N 40°32' W 074°15'0 0.0
2017-Dec-02 16:45N 40°32' W 074°15'0 0.0
2017-Dec-02 16:27N 40°32' W 074°15'0 0.0
2017-Dec-02 13:39N 40°32' W 074°15'0 0.0
2017-Dec-02 13:21N 40°32' W 074°15'0 0.0
2017-Dec-02 13:00N 40°32' W 074°15'0 0.0
2017-Dec-02 12:21N 40°32' W 074°15'0 0.0
2017-Dec-02 12:00N 40°32' W 074°15'0 0.0
2017-Dec-02 04:45N 40°32' W 074°15'1 2.0
2017-Dec-02 04:29N 40°33' W 074°15'3 6.4
2017-Dec-02 04:00N 40°35' W 074°12'4 7.3
2017-Dec-02 03:30N 40°39' W 074°11'4 8.4
2017-Dec-02 03:01N 40°39' W 074°05'2 3.7
2017-Dec-02 02:28N 40°39' W 074°03'0 0.1
2017-Dec-02 01:58N 40°39' W 074°03'0 0.1
2017-Dec-02 01:28N 40°40' W 074°03'0 0.1
2017-Dec-02 00:58N 40°40' W 074°03'0 0.1
2017-Dec-02 00:28N 40°40' W 074°03'0 0.0
2017-Dec-01 23:58N 40°40' W 074°03'0 0.1
2017-Dec-01 23:28N 40°40' W 074°03'0 0.1
2017-Dec-01 22:58N 40°40' W 074°03'0 0.1
2017-Dec-01 22:28N 40°40' W 074°03'0 0.1
2017-Dec-01 21:58N 40°40' W 074°03'0 0.1
2017-Dec-01 21:28N 40°40' W 074°03'0 0.0
2017-Dec-01 20:58N 40°40' W 074°03'0 0.1
2017-Dec-01 20:28N 40°40' W 074°03'0 0.0
2017-Dec-01 19:58N 40°40' W 074°03'0 0.0
2017-Dec-01 19:28N 40°40' W 074°03'0 0.0
2017-Dec-01 18:58N 40°40' W 074°03'0 0.0
2017-Dec-01 18:28N 40°40' W 074°03'0 0.1
2017-Dec-01 17:58N 40°39' W 074°03'0 0.0
2017-Dec-01 17:28N 40°39' W 074°03'0 0.0
2017-Dec-01 16:58N 40°39' W 074°03'0 0.0
2017-Dec-01 16:28N 40°39' W 074°03'0 0.0
2017-Dec-01 15:58N 40°39' W 074°03'0 0.0
2017-Dec-01 15:28N 40°39' W 074°03'0 0.0
2017-Dec-01 14:58N 40°39' W 074°03'0 0.0
2017-Dec-01 14:28N 40°39' W 074°03'0 0.1
2017-Dec-01 13:58N 40°40' W 074°03'0 0.0
2017-Dec-01 13:30N 40°40' W 074°03'0 0.1
2017-Dec-01 13:00N 40°40' W 074°03'0 0.2
2017-Dec-01 12:30N 40°40' W 074°03'0 0.1
2017-Dec-01 12:00N 40°40' W 074°03'0 0.0
2017-Dec-01 11:30N 40°40' W 074°03'0 0.1
2017-Dec-01 11:00N 40°40' W 074°03'0 0.1
2017-Dec-01 10:30N 40°40' W 074°03'0 0.0
2017-Dec-01 10:00N 40°40' W 074°03'  

Dump ship's entire track history